createdAt,value
2019-01-28T00:03:48.970Z,100.00
2019-01-28T00:06:36.795Z,100.00
2019-01-28T00:09:45.261Z,100.00
2019-01-28T00:12:14.095Z,100.00
2019-01-28T00:14:44.322Z,100.00
2019-01-28T00:17:13.013Z,100.00
2019-01-28T00:19:41.653Z,100.00
2019-01-28T00:22:10.354Z,100.00
2019-01-28T00:24:58.313Z,100.00
2019-01-28T00:27:46.177Z,100.00
2019-01-28T00:30:14.854Z,100.00
2019-01-28T00:33:02.612Z,100.00
2019-01-28T00:35:50.548Z,100.00
2019-01-28T00:38:38.376Z,100.00
2019-01-28T00:41:46.899Z,100.00
2019-01-28T00:47:22.344Z,100.00
2019-01-28T00:49:51.376Z,100.00
2019-01-28T00:52:39.190Z,100.00
2019-01-28T00:55:47.600Z,100.00
2019-01-28T00:58:35.416Z,100.00
2019-01-28T01:01:23.376Z,100.00
2019-01-28T01:03:52.017Z,100.00
2019-01-28T01:06:20.662Z,100.00
2019-01-28T01:09:08.514Z,100.00
2019-01-28T01:14:24.779Z,100.00
2019-01-28T01:16:53.451Z,100.00
2019-01-28T01:19:41.476Z,100.00
2019-01-28T01:22:29.335Z,100.00
2019-01-28T01:24:57.984Z,100.00
2019-01-28T01:27:45.863Z,100.00
2019-01-28T01:30:33.789Z,100.00
2019-01-28T01:33:02.487Z,100.00
2019-01-28T01:35:50.316Z,100.00
2019-01-28T01:38:39.577Z,100.00
2019-01-28T01:41:08.223Z,100.00
2019-01-28T01:43:56.091Z,100.00
2019-01-28T01:46:44.000Z,100.00
2019-01-28T01:49:12.670Z,100.00
2019-01-28T01:51:41.322Z,100.00
2019-01-28T01:54:09.999Z,100.00
2019-01-28T01:56:57.759Z,100.00
2019-01-28T01:59:45.630Z,100.00
2019-01-28T02:02:33.711Z,100.00
2019-01-28T02:05:23.132Z,100.00
2019-01-28T02:08:11.042Z,100.00
2019-01-28T02:13:13.990Z,100.00
2019-01-28T02:15:42.685Z,100.00
2019-01-28T02:18:30.540Z,100.00
2019-01-28T02:21:18.434Z,100.00
2019-01-28T02:24:06.307Z,100.00
2019-01-28T02:26:54.257Z,100.00
2019-01-28T02:29:42.056Z,100.00
2019-01-28T02:35:04.057Z,100.00
2019-01-28T02:37:51.976Z,100.00
2019-01-28T02:40:20.678Z,100.00
2019-01-28T02:42:49.370Z,100.00
2019-01-28T02:45:18.006Z,100.00
2019-01-28T02:47:46.710Z,100.00
2019-01-28T02:53:09.190Z,100.00
2019-01-28T02:55:56.972Z,100.00
2019-01-28T02:58:44.859Z,100.00
2019-01-28T03:01:13.498Z,100.00
2019-01-28T03:03:42.260Z,100.00
2019-01-28T03:06:11.076Z,100.00
2019-01-28T03:08:39.790Z,100.00
2019-01-28T03:11:10.441Z,100.00
2019-01-28T03:13:39.026Z,100.00
2019-01-28T03:16:07.707Z,100.00
2019-01-28T03:18:55.492Z,100.00
2019-01-28T03:21:24.198Z,100.00
2019-01-28T03:23:52.900Z,100.00
2019-01-28T03:26:21.548Z,100.00
2019-01-28T03:29:09.497Z,100.00
2019-01-28T03:31:57.454Z,100.00
2019-01-28T03:34:45.327Z,100.00
2019-01-28T03:37:33.198Z,100.00
2019-01-28T03:40:21.185Z,100.00
2019-01-28T03:43:29.668Z,100.00
2019-01-28T03:46:17.607Z,100.00
2019-01-28T03:48:46.350Z,100.00
2019-01-28T03:51:15.037Z,100.00
2019-01-28T03:53:43.899Z,100.00
2019-01-28T03:56:31.864Z,100.00
2019-01-28T03:59:00.523Z,100.00
2019-01-28T04:01:29.202Z,100.00
2019-01-28T04:03:57.983Z,100.00
2019-01-28T04:06:45.903Z,100.00
2019-01-28T04:09:14.603Z,100.00
2019-01-28T04:12:02.434Z,100.00
2019-01-28T04:14:50.320Z,100.00
2019-01-28T04:17:19.211Z,100.00
2019-01-28T04:19:47.923Z,100.00
2019-01-28T04:22:16.641Z,100.00
2019-01-28T04:24:45.287Z,100.00
2019-01-28T04:27:33.223Z,100.00
2019-01-28T04:30:21.137Z,100.00
2019-01-28T04:33:09.028Z,100.00
2019-01-28T04:35:37.708Z,100.00
2019-01-28T04:38:25.590Z,100.00
2019-01-28T04:41:13.527Z,100.00
2019-01-28T04:44:01.418Z,100.00
2019-01-28T04:46:49.317Z,100.00
2019-01-28T04:52:24.765Z,100.00
2019-01-28T04:54:53.457Z,100.00
2019-01-28T05:00:49.561Z,100.00
2019-01-28T05:03:18.211Z,100.00
2019-01-28T05:06:06.092Z,100.00
2019-01-28T05:08:34.805Z,100.00
2019-01-28T05:11:22.711Z,100.00
2019-01-28T05:14:10.665Z,100.00
2019-01-28T05:16:58.609Z,100.00
2019-01-28T05:19:27.297Z,100.00
2019-01-28T05:22:15.213Z,100.00
2019-01-28T05:25:03.165Z,100.00
2019-01-28T05:27:31.867Z,100.00
2019-01-28T05:30:00.522Z,100.00
2019-01-28T05:32:29.239Z,100.00
2019-01-28T05:35:17.134Z,100.00
2019-01-28T05:37:45.795Z,100.00
2019-01-28T05:40:54.321Z,100.00
2019-01-28T05:43:42.178Z,100.00
2019-01-28T05:46:10.889Z,100.00
2019-01-28T05:48:58.843Z,100.00
2019-01-28T05:51:27.499Z,100.00
2019-01-28T05:53:56.181Z,100.00
2019-01-28T05:56:44.101Z,100.00
2019-01-28T05:59:12.779Z,100.00
2019-01-28T06:01:41.480Z,100.00
2019-01-28T06:04:29.429Z,100.00
2019-01-28T06:07:17.361Z,100.00
2019-01-28T06:09:46.039Z,100.00
2019-01-28T06:12:34.163Z,100.00
2019-01-28T06:15:02.859Z,100.00
2019-01-28T06:17:50.760Z,100.00
2019-01-28T06:23:13.536Z,100.00
2019-01-28T06:26:01.353Z,100.00
2019-01-28T06:28:30.053Z,100.00
2019-01-28T06:31:18.187Z,100.00
2019-01-28T06:34:06.064Z,100.00
2019-01-28T06:36:53.945Z,100.00
2019-01-28T06:39:41.905Z,100.00
2019-01-28T06:42:29.686Z,100.00
2019-01-28T06:45:17.635Z,100.00
2019-01-28T06:47:47.192Z,100.00
2019-01-28T06:50:56.477Z,100.00
2019-01-28T06:53:44.295Z,100.00
2019-01-28T06:56:32.220Z,100.00
2019-01-28T06:59:01.025Z,100.00
2019-01-28T07:01:50.281Z,100.00
2019-01-28T07:04:19.355Z,100.00
2019-01-28T07:07:07.213Z,100.00
2019-01-28T07:09:55.077Z,100.00
2019-01-28T07:12:23.846Z,100.00
2019-01-28T07:15:11.893Z,100.00
2019-01-28T07:17:59.759Z,100.00
2019-01-28T07:20:47.587Z,100.00
2019-01-28T07:23:35.561Z,100.00
2019-01-28T07:26:04.293Z,100.00
2019-01-28T07:28:52.248Z,100.00
2019-01-28T07:34:35.295Z,100.00
2019-01-28T07:37:04.162Z,100.00
2019-01-28T07:39:52.080Z,100.00
2019-01-28T07:42:39.996Z,100.00
2019-01-28T07:45:48.525Z,100.00
2019-01-28T07:48:36.409Z,100.00
2019-01-28T07:51:44.831Z,100.00
2019-01-28T07:54:13.521Z,100.00
2019-01-28T07:57:01.455Z,100.00
2019-01-28T07:59:49.421Z,100.00
2019-01-28T08:02:37.242Z,100.00
2019-01-28T08:05:45.667Z,100.00
2019-01-28T08:08:14.347Z,100.00
2019-01-28T08:13:17.006Z,100.00
2019-01-28T08:15:45.765Z,100.00
2019-01-28T08:18:33.919Z,100.00
2019-01-28T08:21:21.863Z,100.00
2019-01-28T08:24:09.815Z,100.00
2019-01-28T08:26:57.765Z,100.00
2019-01-28T08:29:26.409Z,100.00
2019-01-28T08:32:14.272Z,100.00
2019-01-28T08:35:02.016Z,100.00
2019-01-28T08:37:30.678Z,100.00
2019-01-28T08:39:59.348Z,100.00
2019-01-28T08:42:28.011Z,100.00
2019-01-28T08:44:56.642Z,100.00
2019-01-28T08:47:25.308Z,99.66
2019-01-28T08:49:54.000Z,99.33
2019-01-28T08:52:22.673Z,99.33
2019-01-28T08:54:51.307Z,99.34
2019-01-28T08:57:19.970Z,98.93
2019-01-28T08:59:48.669Z,99.01
2019-01-28T09:02:17.283Z,99.62
2019-01-28T09:04:45.942Z,99.07
2019-01-28T09:07:14.568Z,99.38
2019-01-28T09:09:43.231Z,99.46
2019-01-28T09:12:11.852Z,99.08
2019-01-28T09:14:40.505Z,98.71
2019-01-28T09:17:09.127Z,98.68
2019-01-28T09:19:37.802Z,98.20
2019-01-28T09:25:54.517Z,96.81
2019-01-28T09:28:42.491Z,96.80
2019-01-28T09:31:30.318Z,96.74
2019-01-28T09:34:18.195Z,95.12
2019-01-28T09:36:46.852Z,95.36
2019-01-28T09:39:15.494Z,95.35
2019-01-28T09:42:03.382Z,94.91
2019-01-28T09:44:51.255Z,95.23
2019-01-28T09:47:39.210Z,95.21
2019-01-28T09:50:47.696Z,95.25
2019-01-28T09:53:16.355Z,95.19
2019-01-28T09:56:04.233Z,94.30
2019-01-28T09:58:32.897Z,94.90
2019-01-28T10:03:56.517Z,95.71
2019-01-28T10:06:25.204Z,95.72
2019-01-28T10:09:13.082Z,95.29
2019-01-28T10:12:01.040Z,95.37
2019-01-28T10:14:48.931Z,95.43
2019-01-28T10:17:36.799Z,94.23
2019-01-28T10:20:45.241Z,95.06
2019-01-28T10:23:33.104Z,94.96
2019-01-28T10:26:20.888Z,93.36
2019-01-28T10:28:49.612Z,92.93
2019-01-28T10:31:18.293Z,93.02
2019-01-28T10:34:06.457Z,92.31
2019-01-28T10:36:36.497Z,92.01
2019-01-28T10:39:25.846Z,91.83
2019-01-28T10:42:13.779Z,91.19
2019-01-28T10:45:01.562Z,90.35
2019-01-28T10:47:49.491Z,89.48
2019-01-28T10:50:37.751Z,89.48
2019-01-28T10:56:14.577Z,90.73
2019-01-28T10:59:02.355Z,90.96
2019-01-28T11:01:31.033Z,91.13
2019-01-28T11:06:47.303Z,90.97
2019-01-28T11:09:35.320Z,90.74
2019-01-28T11:12:23.234Z,91.10
2019-01-28T11:15:11.089Z,91.20
2019-01-28T11:17:39.870Z,92.45
2019-01-28T11:20:50.038Z,92.73
2019-01-28T11:23:18.802Z,92.12
2019-01-28T11:26:08.341Z,91.77
2019-01-28T11:28:56.348Z,91.04
2019-01-28T11:31:45.853Z,91.04
2019-01-28T11:34:33.986Z,90.43
2019-01-28T11:39:59.033Z,91.03
2019-01-28T11:42:46.938Z,90.31
2019-01-28T11:45:55.473Z,90.68
2019-01-28T11:51:18.607Z,90.87
2019-01-28T11:54:06.519Z,92.23
2019-01-28T11:56:54.482Z,91.58
2019-01-28T11:59:42.370Z,91.98
2019-01-28T12:02:34.397Z,91.14
2019-01-28T12:05:19.913Z,90.71
2019-01-28T12:08:28.322Z,90.36
2019-01-28T12:11:16.266Z,90.67
2019-01-28T12:14:04.094Z,90.60
2019-01-28T12:16:51.983Z,91.83
2019-01-28T12:19:39.826Z,91.06
2019-01-28T12:25:22.051Z,91.15
2019-01-28T12:28:09.905Z,90.98
2019-01-28T12:31:18.376Z,90.51
2019-01-28T12:33:47.057Z,91.40
2019-01-28T12:36:34.922Z,92.39
2019-01-28T12:39:45.115Z,92.91
2019-01-28T12:42:13.891Z,93.42
2019-01-28T12:45:01.743Z,94.31
2019-01-28T12:47:49.694Z,100.00
2019-01-28T12:50:58.170Z,100.00
2019-01-28T12:53:46.065Z,100.00
2019-01-28T12:56:34.015Z,99.08
2019-01-28T12:59:21.932Z,97.53
2019-01-28T13:02:09.874Z,97.97
2019-01-28T13:04:57.773Z,97.71
2019-01-28T13:07:45.648Z,96.94
2019-01-28T13:10:54.065Z,97.62
2019-01-28T13:13:22.766Z,97.66
2019-01-28T13:18:27.000Z,99.63
2019-01-28T13:21:14.840Z,100.00
2019-01-28T13:24:02.785Z,100.00
2019-01-28T13:26:50.702Z,100.00
2019-01-28T13:29:38.651Z,100.00
2019-01-28T13:32:47.145Z,100.00
2019-01-28T13:38:10.509Z,100.00
2019-01-28T13:40:58.380Z,100.00
2019-01-28T13:43:27.154Z,100.00
2019-01-28T13:46:15.174Z,100.00
2019-01-28T13:49:03.135Z,100.00
2019-01-28T13:51:51.061Z,100.00
2019-01-28T13:54:39.009Z,100.00
2019-01-28T13:57:26.842Z,100.00
2019-01-28T14:00:14.621Z,100.00
2019-01-28T14:08:12.497Z,100.00
2019-01-28T14:11:00.309Z,100.00
2019-01-28T14:13:48.245Z,100.00
2019-01-28T14:19:30.863Z,100.00
2019-01-28T14:22:18.706Z,100.00
2019-01-28T14:25:06.535Z,100.00
2019-01-28T14:27:35.230Z,100.00
2019-01-28T14:33:18.071Z,100.00
2019-01-28T14:36:07.402Z,100.00
2019-01-28T14:38:55.218Z,100.00
2019-01-28T14:41:43.162Z,100.00
2019-01-28T14:44:31.004Z,100.00
2019-01-28T14:46:59.732Z,100.00
2019-01-28T14:49:54.512Z,100.00
2019-01-28T14:52:18.091Z,100.00
2019-01-28T14:55:06.008Z,100.00
2019-01-28T14:58:16.450Z,100.00
2019-01-28T15:01:24.676Z,100.00
2019-01-28T15:03:53.451Z,100.00
2019-01-28T15:06:22.212Z,100.00
2019-01-28T15:08:50.906Z,100.00
2019-01-28T15:13:54.267Z,100.00
2019-01-28T15:16:22.934Z,100.00
2019-01-28T15:18:51.635Z,100.00
2019-01-28T15:21:39.472Z,100.00
2019-01-28T15:26:43.450Z,100.00
2019-01-28T15:29:12.196Z,100.00
2019-01-28T15:32:00.050Z,100.00
2019-01-28T15:34:28.710Z,100.00
2019-01-28T15:36:57.355Z,100.00
2019-01-28T15:39:45.305Z,100.00
2019-01-28T15:42:14.007Z,100.00
2019-01-28T15:44:42.677Z,100.00
2019-01-28T15:47:11.583Z,100.00
2019-01-28T15:49:40.255Z,100.00
2019-01-28T15:52:09.026Z,100.00
2019-01-28T15:54:37.685Z,100.00
2019-01-28T15:57:06.371Z,100.00
2019-01-28T15:59:35.080Z,100.00
2019-01-28T16:02:03.885Z,100.00
2019-01-28T16:04:32.612Z,100.00
2019-01-28T16:07:01.340Z,100.00
2019-01-28T16:09:30.039Z,100.00
2019-01-28T16:11:58.757Z,100.00
2019-01-28T16:14:27.462Z,100.00
2019-01-28T16:16:56.157Z,100.00
2019-01-28T16:19:24.796Z,100.00
2019-01-28T16:21:53.513Z,100.00
2019-01-28T16:24:22.169Z,100.00
2019-01-28T16:26:50.984Z,100.00
2019-01-28T16:29:19.684Z,100.00
2019-01-28T16:31:48.388Z,100.00
2019-01-28T16:34:17.047Z,100.00
2019-01-28T16:36:45.752Z,100.00
2019-01-28T16:39:14.495Z,100.00
2019-01-28T16:41:50.258Z,100.00
2019-01-28T16:44:18.920Z,100.00
2019-01-28T16:46:47.611Z,100.00
2019-01-28T16:49:16.268Z,100.00
2019-01-28T16:51:44.976Z,100.00
2019-01-28T16:54:13.636Z,100.00
2019-01-28T16:56:42.327Z,100.00
2019-01-28T16:59:11.056Z,100.00
2019-01-28T17:01:39.720Z,100.00
2019-01-28T17:04:08.514Z,100.00
2019-01-28T17:06:37.199Z,100.00
2019-01-28T17:09:45.636Z,100.00
2019-01-28T17:12:14.399Z,100.00
2019-01-28T17:14:43.057Z,100.00
2019-01-28T17:17:11.741Z,100.00
2019-01-28T17:19:40.447Z,100.00
2019-01-28T17:22:09.137Z,100.00
2019-01-28T17:24:37.800Z,100.00
2019-01-28T17:27:06.491Z,100.00
2019-01-28T17:29:35.139Z,100.00
2019-01-28T17:32:03.853Z,100.00
2019-01-28T17:34:32.614Z,100.00
2019-01-28T17:39:55.656Z,100.00
2019-01-28T17:42:24.319Z,100.00
2019-01-28T17:44:53.002Z,100.00
2019-01-28T17:47:21.775Z,100.00
2019-01-28T17:49:50.483Z,100.00
2019-01-28T17:52:19.213Z,100.00
2019-01-28T17:54:47.871Z,100.00
2019-01-28T17:57:16.579Z,100.00
2019-01-28T17:59:45.308Z,100.00
2019-01-28T18:02:13.996Z,100.00
2019-01-28T18:04:42.656Z,100.00
2019-01-28T18:07:11.454Z,100.00
2019-01-28T18:09:40.090Z,100.00
2019-01-28T18:12:08.788Z,100.00
2019-01-28T18:14:37.492Z,100.00
2019-01-28T18:17:06.148Z,100.00
2019-01-28T18:22:10.493Z,100.00
2019-01-28T18:24:39.193Z,100.00
2019-01-28T18:27:07.901Z,100.00
2019-01-28T18:29:36.542Z,100.00
2019-01-28T18:32:05.310Z,100.00
2019-01-28T18:34:34.004Z,100.00
2019-01-28T18:40:50.684Z,100.00
2019-01-28T18:43:19.350Z,100.00
2019-01-28T18:45:48.050Z,100.00
2019-01-28T18:48:16.911Z,100.00
2019-01-28T18:50:45.601Z,100.00
2019-01-28T18:53:14.300Z,100.00
2019-01-28T18:55:43.199Z,100.00
2019-01-28T18:58:11.887Z,100.00
2019-01-28T19:00:40.565Z,100.00
2019-01-28T19:03:09.273Z,100.00
2019-01-28T19:05:57.038Z,100.00
2019-01-28T19:08:44.871Z,100.00
2019-01-28T19:14:08.445Z,100.00
2019-01-28T19:16:56.234Z,100.00
2019-01-28T19:19:44.069Z,100.00
2019-01-28T19:22:12.841Z,100.00
2019-01-28T19:24:41.497Z,100.00
2019-01-28T19:27:10.213Z,100.00
2019-01-28T19:29:38.949Z,100.00
2019-01-28T19:32:07.732Z,100.00
2019-01-28T19:34:36.398Z,100.00
2019-01-28T19:37:05.086Z,100.00
2019-01-28T19:39:33.771Z,100.00
2019-01-28T19:42:02.437Z,100.00
2019-01-28T19:44:31.138Z,100.00
2019-01-28T19:46:59.918Z,100.00
2019-01-28T19:49:28.624Z,100.00
2019-01-28T19:52:17.388Z,100.00
2019-01-28T20:17:53.174Z,100.00
2019-01-28T20:20:21.821Z,100.00
2019-01-28T20:22:50.558Z,100.00
2019-01-28T20:25:59.000Z,100.00
2019-01-28T20:28:27.759Z,100.00
2019-01-28T20:30:56.450Z,100.00
2019-01-28T20:33:25.164Z,100.00
2019-01-28T20:35:53.826Z,100.00
2019-01-28T20:38:22.705Z,100.00
2019-01-28T20:40:51.403Z,100.00
2019-01-28T20:43:24.182Z,100.00
2019-01-28T20:45:50.547Z,100.00
2019-01-28T20:48:19.273Z,100.00
2019-01-28T20:50:47.962Z,100.00
2019-01-28T20:53:16.625Z,100.00
2019-01-28T20:55:45.312Z,100.00
2019-01-28T20:58:13.960Z,100.00
2019-01-28T21:00:42.679Z,100.00
2019-01-28T21:03:11.339Z,100.00
2019-01-28T21:05:40.002Z,100.00
2019-01-28T21:08:08.708Z,100.00
2019-01-28T21:10:37.552Z,100.00
2019-01-28T21:13:46.027Z,100.00
2019-01-28T21:16:14.734Z,100.00
2019-01-28T21:18:43.432Z,100.00
2019-01-28T21:21:12.166Z,100.00
2019-01-28T21:23:40.877Z,100.00
2019-01-28T21:26:09.579Z,100.00
2019-01-28T21:28:38.226Z,100.00
2019-01-28T21:31:07.015Z,100.00
2019-01-28T21:33:35.680Z,100.00
2019-01-28T21:38:59.203Z,100.00
2019-01-28T21:41:27.870Z,100.00
2019-01-28T21:43:56.541Z,100.00
2019-01-28T21:46:25.326Z,100.00
2019-01-28T21:48:53.983Z,100.00
2019-01-28T21:51:22.786Z,100.00
2019-01-28T21:53:51.463Z,100.00
2019-01-28T21:56:20.113Z,100.00
2019-01-28T21:58:48.803Z,100.00
2019-01-28T22:01:17.509Z,100.00
2019-01-28T22:03:46.250Z,100.00
2019-01-28T22:06:14.936Z,100.00
2019-01-28T22:08:43.600Z,100.00
2019-01-28T22:11:12.308Z,100.00
2019-01-28T22:13:41.131Z,100.00
2019-01-28T22:16:09.845Z,100.00
2019-01-28T22:18:38.512Z,100.00
2019-01-28T22:23:42.715Z,100.00
2019-01-28T22:26:11.427Z,100.00
2019-01-28T22:28:40.067Z,100.00
2019-01-28T22:31:08.717Z,100.00
2019-01-28T22:33:37.423Z,100.00
2019-01-28T22:36:06.116Z,100.00
2019-01-28T22:38:34.822Z,100.00
2019-01-28T22:41:03.488Z,100.00
2019-01-28T22:43:32.201Z,100.00
2019-01-28T22:46:00.903Z,100.00
2019-01-28T22:49:09.386Z,100.00
2019-01-28T22:51:38.065Z,100.00
2019-01-28T22:54:06.771Z,100.00
2019-01-28T22:56:35.436Z,100.00
2019-01-28T23:01:58.716Z,100.00
2019-01-28T23:04:27.364Z,100.00
2019-01-28T23:06:56.089Z,100.00
2019-01-28T23:09:24.749Z,100.00
2019-01-28T23:11:53.527Z,100.00
2019-01-28T23:14:22.215Z,100.00
2019-01-28T23:16:50.921Z,100.00
2019-01-28T23:19:19.580Z,100.00
2019-01-28T23:21:48.279Z,100.00
2019-01-28T23:24:36.182Z,100.00
2019-01-28T23:27:04.848Z,100.00
2019-01-28T23:29:33.543Z,100.00
2019-01-28T23:32:02.312Z,100.00
2019-01-28T23:34:31.048Z,100.00
2019-01-28T23:36:59.710Z,100.00
2019-01-28T23:39:28.420Z,100.00
2019-01-28T23:41:57.076Z,100.00
2019-01-28T23:44:25.856Z,100.00
2019-01-28T23:46:54.521Z,100.00
2019-01-28T23:49:23.301Z,100.00
2019-01-28T23:51:51.949Z,100.00
2019-01-28T23:54:20.713Z,100.00
2019-01-28T23:56:49.441Z,100.00
2019-01-28T23:59:18.131Z,100.00
